sensor_id;sensor_type;location;lat;lon;timestamp;P1;durP1;ratioP1;P2;durP2;ratioP2
80229;SDS011;69540;42.136;24.742;2023-07-13T00:02:14;2.88;;;2.67;;
80229;SDS011;69540;42.136;24.742;2023-07-13T00:04:40;3.10;;;2.90;;
80229;SDS011;69540;42.136;24.742;2023-07-13T00:07:07;3.10;;;2.90;;
80229;SDS011;69540;42.136;24.742;2023-07-13T00:09:33;3.20;;;3.00;;
80229;SDS011;69540;42.136;24.742;2023-07-13T00:11:59;3.08;;;2.88;;
80229;SDS011;69540;42.136;24.742;2023-07-13T00:14:26;3.25;;;3.05;;
80229;SDS011;69540;42.136;24.742;2023-07-13T00:16:53;2.90;;;2.70;;
80229;SDS011;69540;42.136;24.742;2023-07-13T00:19:19;3.10;;;2.90;;
80229;SDS011;69540;42.136;24.742;2023-07-13T00:21:45;3.15;;;2.95;;
80229;SDS011;69540;42.136;24.742;2023-07-13T00:24:12;3.20;;;3.00;;
80229;SDS011;69540;42.136;24.742;2023-07-13T00:26:40;3.20;;;3.00;;
80229;SDS011;69540;42.136;24.742;2023-07-13T00:29:09;3.00;;;2.80;;
80229;SDS011;69540;42.136;24.742;2023-07-13T00:31:35;3.80;;;3.10;;
80229;SDS011;69540;42.136;24.742;2023-07-13T00:34:01;3.10;;;2.90;;
80229;SDS011;69540;42.136;24.742;2023-07-13T00:36:29;2.95;;;2.75;;
80229;SDS011;69540;42.136;24.742;2023-07-13T00:38:55;3.55;;;3.00;;
80229;SDS011;69540;42.136;24.742;2023-07-13T00:41:21;3.00;;;2.80;;
80229;SDS011;69540;42.136;24.742;2023-07-13T00:43:46;3.15;;;2.95;;
80229;SDS011;69540;42.136;24.742;2023-07-13T00:48:48;3.15;;;2.95;;
80229;SDS011;69540;42.136;24.742;2023-07-13T00:51:21;2.95;;;2.75;;
80229;SDS011;69540;42.136;24.742;2023-07-13T00:53:51;3.20;;;2.92;;
80229;SDS011;69540;42.136;24.742;2023-07-13T00:56:19;3.25;;;3.05;;
80229;SDS011;69540;42.136;24.742;2023-07-13T00:58:45;2.83;;;2.63;;
80229;SDS011;69540;42.136;24.742;2023-07-13T01:01:11;3.00;;;2.80;;
80229;SDS011;69540;42.136;24.742;2023-07-13T01:03:38;3.60;;;3.30;;
80229;SDS011;69540;42.136;24.742;2023-07-13T01:06:05;3.13;;;2.92;;
80229;SDS011;69540;42.136;24.742;2023-07-13T01:08:31;3.13;;;2.92;;
80229;SDS011;69540;42.136;24.742;2023-07-13T01:10:58;3.42;;;3.13;;
80229;SDS011;69540;42.136;24.742;2023-07-13T01:13:24;3.40;;;3.13;;
80229;SDS011;69540;42.136;24.742;2023-07-13T01:15:51;3.45;;;3.15;;
80229;SDS011;69540;42.136;24.742;2023-07-13T01:18:22;3.42;;;3.13;;
80229;SDS011;69540;42.136;24.742;2023-07-13T01:23:22;3.00;;;2.80;;
80229;SDS011;69540;42.136;24.742;2023-07-13T01:25:49;3.33;;;3.05;;
80229;SDS011;69540;42.136;24.742;2023-07-13T01:28:15;3.38;;;3.00;;
80229;SDS011;69540;42.136;24.742;2023-07-13T01:30:41;3.67;;;3.38;;
80229;SDS011;69540;42.136;24.742;2023-07-13T01:33:10;3.17;;;2.88;;
80229;SDS011;69540;42.136;24.742;2023-07-13T01:35:37;2.78;;;2.58;;
80229;SDS011;69540;42.136;24.742;2023-07-13T01:38:02;3.40;;;3.10;;
80229;SDS011;69540;42.136;24.742;2023-07-13T01:40:29;3.35;;;3.15;;
80229;SDS011;69540;42.136;24.742;2023-07-13T01:42:55;3.13;;;2.92;;
80229;SDS011;69540;42.136;24.742;2023-07-13T01:45:21;3.10;;;2.90;;
80229;SDS011;69540;42.136;24.742;2023-07-13T01:47:47;2.88;;;2.67;;
80229;SDS011;69540;42.136;24.742;2023-07-13T01:50:12;3.33;;;3.03;;
80229;SDS011;69540;42.136;24.742;2023-07-13T01:52:38;3.10;;;2.90;;
80229;SDS011;69540;42.136;24.742;2023-07-13T01:55:04;3.53;;;3.22;;
80229;SDS011;69540;42.136;24.742;2023-07-13T01:57:30;3.38;;;3.10;;
80229;SDS011;69540;42.136;24.742;2023-07-13T01:59:55;3.10;;;2.90;;
80229;SDS011;69540;42.136;24.742;2023-07-13T02:02:21;3.60;;;3.30;;
80229;SDS011;69540;42.136;24.742;2023-07-13T02:04:47;3.60;;;3.30;;
80229;SDS011;69540;42.136;24.742;2023-07-13T02:07:13;3.13;;;2.83;;
80229;SDS011;69540;42.136;24.742;2023-07-13T02:09:40;3.50;;;3.20;;
80229;SDS011;69540;42.136;24.742;2023-07-13T02:12:07;3.35;;;3.10;;
80229;SDS011;69540;42.136;24.742;2023-07-13T02:14:33;3.63;;;3.15;;
80229;SDS011;69540;42.136;24.742;2023-07-13T02:16:58;3.38;;;3.17;;
80229;SDS011;69540;42.136;24.742;2023-07-13T02:19:24;3.03;;;2.83;;
80229;SDS011;69540;42.136;24.742;2023-07-13T02:21:50;3.35;;;3.08;;
80229;SDS011;69540;42.136;24.742;2023-07-13T02:24:15;3.80;;;3.13;;
80229;SDS011;69540;42.136;24.742;2023-07-13T02:26:45;3.30;;;3.00;;
80229;SDS011;69540;42.136;24.742;2023-07-13T02:29:11;3.20;;;3.00;;
80229;SDS011;69540;42.136;24.742;2023-07-13T02:31:37;3.10;;;2.90;;
80229;SDS011;69540;42.136;24.742;2023-07-13T02:34:03;3.40;;;3.20;;
80229;SDS011;69540;42.136;24.742;2023-07-13T02:36:29;3.45;;;3.15;;
80229;SDS011;69540;42.136;24.742;2023-07-13T02:38:55;3.28;;;3.08;;
80229;SDS011;69540;42.136;24.742;2023-07-13T02:41:21;3.00;;;2.80;;
80229;SDS011;69540;42.136;24.742;2023-07-13T02:43:48;2.83;;;2.63;;
80229;SDS011;69540;42.136;24.742;2023-07-13T02:46:14;3.42;;;3.20;;
80229;SDS011;69540;42.136;24.742;2023-07-13T02:48:40;3.47;;;3.28;;
80229;SDS011;69540;42.136;24.742;2023-07-13T02:51:06;3.03;;;2.83;;
80229;SDS011;69540;42.136;24.742;2023-07-13T02:53:33;3.40;;;3.20;;
80229;SDS011;69540;42.136;24.742;2023-07-13T02:56:00;3.25;;;3.00;;
80229;SDS011;69540;42.136;24.742;2023-07-13T02:58:26;3.35;;;3.05;;
80229;SDS011;69540;42.136;24.742;2023-07-13T03:00:51;3.38;;;3.00;;
80229;SDS011;69540;42.136;24.742;2023-07-13T03:03:17;3.20;;;3.00;;
80229;SDS011;69540;42.136;24.742;2023-07-13T03:05:43;3.20;;;3.00;;
80229;SDS011;69540;42.136;24.742;2023-07-13T03:10:40;3.30;;;3.10;;
80229;SDS011;69540;42.136;24.742;2023-07-13T03:13:06;3.42;;;3.13;;
80229;SDS011;69540;42.136;24.742;2023-07-13T03:15:32;3.08;;;2.88;;
80229;SDS011;69540;42.136;24.742;2023-07-13T03:17:57;3.45;;;3.17;;
80229;SDS011;69540;42.136;24.742;2023-07-13T03:20:23;3.17;;;2.97;;
80229;SDS011;69540;42.136;24.742;2023-07-13T03:22:49;3.25;;;3.05;;
80229;SDS011;69540;42.136;24.742;2023-07-13T03:25:15;3.40;;;3.15;;
80229;SDS011;69540;42.136;24.742;2023-07-13T03:27:40;3.17;;;2.97;;
80229;SDS011;69540;42.136;24.742;2023-07-13T03:30:06;3.30;;;3.10;;
80229;SDS011;69540;42.136;24.742;2023-07-13T03:32:32;3.22;;;3.00;;
80229;SDS011;69540;42.136;24.742;2023-07-13T03:34:58;3.28;;;3.08;;
80229;SDS011;69540;42.136;24.742;2023-07-13T03:37:24;3.13;;;2.92;;
80229;SDS011;69540;42.136;24.742;2023-07-13T03:39:50;3.17;;;2.97;;
80229;SDS011;69540;42.136;24.742;2023-07-13T03:42:15;3.05;;;2.85;;
80229;SDS011;69540;42.136;24.742;2023-07-13T03:44:41;3.00;;;2.80;;
80229;SDS011;69540;42.136;24.742;2023-07-13T03:47:11;2.97;;;2.78;;
80229;SDS011;69540;42.136;24.742;2023-07-13T03:49:37;3.40;;;3.10;;
80229;SDS011;69540;42.136;24.742;2023-07-13T03:52:02;2.90;;;2.70;;
80229;SDS011;69540;42.136;24.742;2023-07-13T03:54:29;3.00;;;2.80;;
80229;SDS011;69540;42.136;24.742;2023-07-13T03:56:54;3.20;;;3.00;;
80229;SDS011;69540;42.136;24.742;2023-07-13T03:59:20;3.35;;;3.05;;
80229;SDS011;69540;42.136;24.742;2023-07-13T04:01:46;4.13;;;3.72;;
80229;SDS011;69540;42.136;24.742;2023-07-13T04:04:12;4.10;;;3.70;;
80229;SDS011;69540;42.136;24.742;2023-07-13T04:06:38;4.68;;;4.30;;
80229;SDS011;69540;42.136;24.742;2023-07-13T04:09:03;4.93;;;4.43;;
80229;SDS011;69540;42.136;24.742;2023-07-13T04:11:34;5.13;;;4.00;;
80229;SDS011;69540;42.136;24.742;2023-07-13T04:14:01;4.45;;;4.07;;
80229;SDS011;69540;42.136;24.742;2023-07-13T04:16:27;4.97;;;4.43;;
80229;SDS011;69540;42.136;24.742;2023-07-13T04:18:54;5.07;;;4.50;;
80229;SDS011;69540;42.136;24.742;2023-07-13T04:21:24;4.78;;;4.38;;
80229;SDS011;69540;42.136;24.742;2023-07-13T04:23:54;5.82;;;4.28;;
80229;SDS011;69540;42.136;24.742;2023-07-13T04:26:20;4.93;;;4.43;;
80229;SDS011;69540;42.136;24.742;2023-07-13T04:28:46;5.35;;;4.75;;
80229;SDS011;69540;42.136;24.742;2023-07-13T04:31:13;5.07;;;4.50;;
80229;SDS011;69540;42.136;24.742;2023-07-13T04:33:38;5.53;;;4.60;;
80229;SDS011;69540;42.136;24.742;2023-07-13T04:36:04;5.18;;;4.70;;
80229;SDS011;69540;42.136;24.742;2023-07-13T04:38:30;5.18;;;4.60;;
80229;SDS011;69540;42.136;24.742;2023-07-13T04:41:01;5.13;;;4.50;;
80229;SDS011;69540;42.136;24.742;2023-07-13T04:43:30;5.38;;;4.85;;
80229;SDS011;69540;42.136;24.742;2023-07-13T04:45:56;5.32;;;4.80;;
80229;SDS011;69540;42.136;24.742;2023-07-13T04:48:23;4.82;;;4.28;;
80229;SDS011;69540;42.136;24.742;2023-07-13T04:50:54;4.85;;;4.53;;
80229;SDS011;69540;42.136;24.742;2023-07-13T04:53:21;5.00;;;4.50;;
80229;SDS011;69540;42.136;24.742;2023-07-13T04:55:46;5.70;;;4.90;;
80229;SDS011;69540;42.136;24.742;2023-07-13T04:58:12;6.28;;;4.57;;
80229;SDS011;69540;42.136;24.742;2023-07-13T05:00:38;6.78;;;5.30;;
80229;SDS011;69540;42.136;24.742;2023-07-13T05:03:04;6.55;;;5.15;;
80229;SDS011;69540;42.136;24.742;2023-07-13T05:05:30;5.30;;;4.80;;
80229;SDS011;69540;42.136;24.742;2023-07-13T05:07:56;5.15;;;4.75;;
80229;SDS011;69540;42.136;24.742;2023-07-13T05:10:22;5.63;;;5.03;;
80229;SDS011;69540;42.136;24.742;2023-07-13T05:12:49;5.13;;;4.72;;
80229;SDS011;69540;42.136;24.742;2023-07-13T05:15:15;5.35;;;4.85;;
80229;SDS011;69540;42.136;24.742;2023-07-13T05:17:46;7.15;;;5.50;;
80229;SDS011;69540;42.136;24.742;2023-07-13T05:20:14;6.28;;;5.60;;
80229;SDS011;69540;42.136;24.742;2023-07-13T05:22:41;8.25;;;5.80;;
80229;SDS011;69540;42.136;24.742;2023-07-13T05:25:07;5.80;;;5.15;;
80229;SDS011;69540;42.136;24.742;2023-07-13T05:27:33;7.50;;;5.80;;
80229;SDS011;69540;42.136;24.742;2023-07-13T05:29:59;9.95;;;6.40;;
80229;SDS011;69540;42.136;24.742;2023-07-13T05:32:25;9.55;;;6.28;;
80229;SDS011;69540;42.136;24.742;2023-07-13T05:34:51;6.63;;;5.93;;
80229;SDS011;69540;42.136;24.742;2023-07-13T05:37:17;9.00;;;6.47;;
80229;SDS011;69540;42.136;24.742;2023-07-13T05:39:43;10.00;;;6.40;;
80229;SDS011;69540;42.136;24.742;2023-07-13T05:42:09;10.93;;;6.50;;
80229;SDS011;69540;42.136;24.742;2023-07-13T05:44:34;6.95;;;5.85;;
80229;SDS011;69540;42.136;24.742;2023-07-13T05:47:00;7.28;;;5.57;;
80229;SDS011;69540;42.136;24.742;2023-07-13T05:49:25;9.30;;;6.10;;
80229;SDS011;69540;42.136;24.742;2023-07-13T05:51:51;7.20;;;6.20;;
80229;SDS011;69540;42.136;24.742;2023-07-13T05:54:17;6.68;;;5.93;;
80229;SDS011;69540;42.136;24.742;2023-07-13T05:56:42;7.60;;;5.97;;
80229;SDS011;69540;42.136;24.742;2023-07-13T05:59:08;7.78;;;5.95;;
80229;SDS011;69540;42.136;24.742;2023-07-13T06:01:34;6.72;;;5.93;;
80229;SDS011;69540;42.136;24.742;2023-07-13T06:03:59;6.75;;;5.75;;
80229;SDS011;69540;42.136;24.742;2023-07-13T06:06:25;5.95;;;5.35;;
80229;SDS011;69540;42.136;24.742;2023-07-13T06:08:51;6.93;;;5.65;;
80229;SDS011;69540;42.136;24.742;2023-07-13T06:11:18;6.60;;;5.68;;
80229;SDS011;69540;42.136;24.742;2023-07-13T06:13:46;6.10;;;5.50;;
80229;SDS011;69540;42.136;24.742;2023-07-13T06:16:12;6.35;;;5.75;;
80229;SDS011;69540;42.136;24.742;2023-07-13T06:18:39;5.63;;;5.13;;
80229;SDS011;69540;42.136;24.742;2023-07-13T06:21:15;8.57;;;6.07;;
80229;SDS011;69540;42.136;24.742;2023-07-13T06:23:43;5.80;;;5.20;;
80229;SDS011;69540;42.136;24.742;2023-07-13T06:26:10;6.70;;;5.47;;
80229;SDS011;69540;42.136;24.742;2023-07-13T06:28:36;6.20;;;5.15;;
80229;SDS011;69540;42.136;24.742;2023-07-13T06:31:04;5.75;;;5.15;;
80229;SDS011;69540;42.136;24.742;2023-07-13T06:33:34;6.53;;;5.43;;
80229;SDS011;69540;42.136;24.742;2023-07-13T06:36:01;6.07;;;5.22;;
80229;SDS011;69540;42.136;24.742;2023-07-13T06:38:27;6.22;;;5.00;;
80229;SDS011;69540;42.136;24.742;2023-07-13T06:40:53;5.75;;;5.03;;
80229;SDS011;69540;42.136;24.742;2023-07-13T06:43:18;5.85;;;5.30;;
80229;SDS011;69540;42.136;24.742;2023-07-13T06:45:45;7.82;;;5.38;;
80229;SDS011;69540;42.136;24.742;2023-07-13T06:48:14;5.38;;;4.85;;
80229;SDS011;69540;42.136;24.742;2023-07-13T06:50:41;5.78;;;5.15;;
80229;SDS011;69540;42.136;24.742;2023-07-13T06:53:08;6.38;;;4.88;;
80229;SDS011;69540;42.136;24.742;2023-07-13T06:55:34;5.07;;;4.57;;
80229;SDS011;69540;42.136;24.742;2023-07-13T06:58:00;6.70;;;5.40;;
80229;SDS011;69540;42.136;24.742;2023-07-13T07:00:26;5.50;;;5.00;;
80229;SDS011;69540;42.136;24.742;2023-07-13T07:02:51;6.18;;;5.53;;
80229;SDS011;69540;42.136;24.742;2023-07-13T07:05:17;5.93;;;5.07;;
80229;SDS011;69540;42.136;24.742;2023-07-13T07:07:46;6.35;;;5.30;;
80229;SDS011;69540;42.136;24.742;2023-07-13T07:10:12;6.72;;;5.20;;
80229;SDS011;69540;42.136;24.742;2023-07-13T07:12:38;5.78;;;5.10;;
80229;SDS011;69540;42.136;24.742;2023-07-13T07:15:04;5.65;;;5.07;;
80229;SDS011;69540;42.136;24.742;2023-07-13T07:17:30;5.82;;;4.78;;
80229;SDS011;69540;42.136;24.742;2023-07-13T07:19:55;8.13;;;5.22;;
80229;SDS011;69540;42.136;24.742;2023-07-13T07:22:21;7.00;;;5.05;;
80229;SDS011;69540;42.136;24.742;2023-07-13T07:24:46;5.50;;;4.75;;
80229;SDS011;69540;42.136;24.742;2023-07-13T07:27:12;5.45;;;4.75;;
80229;SDS011;69540;42.136;24.742;2023-07-13T07:29:38;4.95;;;4.50;;
80229;SDS011;69540;42.136;24.742;2023-07-13T07:32:04;5.97;;;4.60;;
80229;SDS011;69540;42.136;24.742;2023-07-13T07:34:30;6.68;;;4.95;;
80229;SDS011;69540;42.136;24.742;2023-07-13T07:36:58;5.45;;;4.70;;
80229;SDS011;69540;42.136;24.742;2023-07-13T07:39:26;5.60;;;4.75;;
80229;SDS011;69540;42.136;24.742;2023-07-13T07:41:52;5.32;;;4.82;;
80229;SDS011;69540;42.136;24.742;2023-07-13T07:44:18;4.72;;;4.32;;
80229;SDS011;69540;42.136;24.742;2023-07-13T07:46:44;5.63;;;4.75;;
80229;SDS011;69540;42.136;24.742;2023-07-13T07:49:09;5.13;;;4.63;;
80229;SDS011;69540;42.136;24.742;2023-07-13T07:51:35;4.78;;;4.35;;
80229;SDS011;69540;42.136;24.742;2023-07-13T07:54:02;5.10;;;4.47;;
80229;SDS011;69540;42.136;24.742;2023-07-13T07:56:28;5.70;;;4.82;;
80229;SDS011;69540;42.136;24.742;2023-07-13T07:58:54;5.05;;;4.60;;
80229;SDS011;69540;42.136;24.742;2023-07-13T08:01:19;5.00;;;4.60;;
80229;SDS011;69540;42.136;24.742;2023-07-13T08:03:45;4.60;;;4.20;;
80229;SDS011;69540;42.136;24.742;2023-07-13T08:06:10;5.10;;;4.60;;
80229;SDS011;69540;42.136;24.742;2023-07-13T08:08:36;5.15;;;4.60;;
80229;SDS011;69540;42.136;24.742;2023-07-13T08:11:05;6.07;;;4.85;;
80229;SDS011;69540;42.136;24.742;2023-07-13T08:13:32;4.75;;;4.35;;
80229;SDS011;69540;42.136;24.742;2023-07-13T08:15:58;5.03;;;4.55;;
80229;SDS011;69540;42.136;24.742;2023-07-13T08:18:24;5.10;;;4.60;;
80229;SDS011;69540;42.136;24.742;2023-07-13T08:20:50;4.97;;;4.38;;
80229;SDS011;69540;42.136;24.742;2023-07-13T08:23:16;7.13;;;4.47;;
80229;SDS011;69540;42.136;24.742;2023-07-13T08:25:42;5.03;;;4.50;;
80229;SDS011;69540;42.136;24.742;2023-07-13T08:28:15;5.18;;;4.65;;
80229;SDS011;69540;42.136;24.742;2023-07-13T08:30:40;6.22;;;4.95;;
80229;SDS011;69540;42.136;24.742;2023-07-13T08:33:06;4.70;;;4.25;;
80229;SDS011;69540;42.136;24.742;2023-07-13T08:35:31;4.88;;;4.40;;
80229;SDS011;69540;42.136;24.742;2023-07-13T08:37:57;6.22;;;4.65;;
80229;SDS011;69540;42.136;24.742;2023-07-13T08:40:24;4.93;;;4.30;;
80229;SDS011;69540;42.136;24.742;2023-07-13T08:42:57;5.00;;;4.50;;
80229;SDS011;69540;42.136;24.742;2023-07-13T08:48:03;5.57;;;4.50;;
80229;SDS011;69540;42.136;24.742;2023-07-13T08:50:45;4.40;;;4.00;;
80229;SDS011;69540;42.136;24.742;2023-07-13T08:53:19;5.15;;;4.13;;
80229;SDS011;69540;42.136;24.742;2023-07-13T08:55:57;4.95;;;4.43;;
80229;SDS011;69540;42.136;24.742;2023-07-13T08:58:24;4.47;;;4.07;;
80229;SDS011;69540;42.136;24.742;2023-07-13T09:03:42;4.85;;;4.45;;
80229;SDS011;69540;42.136;24.742;2023-07-13T09:06:27;4.50;;;4.10;;
80229;SDS011;69540;42.136;24.742;2023-07-13T09:09:35;4.80;;;4.40;;
80229;SDS011;69540;42.136;24.742;2023-07-13T09:14:47;4.60;;;4.10;;
80229;SDS011;69540;42.136;24.742;2023-07-13T09:17:17;4.65;;;4.25;;
80229;SDS011;69540;42.136;24.742;2023-07-13T09:20:03;4.97;;;4.18;;
80229;SDS011;69540;42.136;24.742;2023-07-13T09:22:42;4.55;;;4.15;;
80229;SDS011;69540;42.136;24.742;2023-07-13T09:27:55;4.55;;;4.15;;
80229;SDS011;69540;42.136;24.742;2023-07-13T09:33:07;4.78;;;4.38;;
80229;SDS011;69540;42.136;24.742;2023-07-13T09:35:34;4.53;;;4.13;;
80229;SDS011;69540;42.136;24.742;2023-07-13T09:38:19;5.75;;;4.53;;
80229;SDS011;69540;42.136;24.742;2023-07-13T09:43:29;5.60;;;4.25;;
80229;SDS011;69540;42.136;24.742;2023-07-13T09:45:55;4.38;;;3.83;;
80229;SDS011;69540;42.136;24.742;2023-07-13T09:48:21;4.32;;;4.03;;
80229;SDS011;69540;42.136;24.742;2023-07-13T09:50:47;4.38;;;3.65;;
80229;SDS011;69540;42.136;24.742;2023-07-13T09:53:14;4.45;;;3.80;;
80229;SDS011;69540;42.136;24.742;2023-07-13T09:55:43;4.15;;;3.75;;
80229;SDS011;69540;42.136;24.742;2023-07-13T09:58:14;4.60;;;4.20;;
80229;SDS011;69540;42.136;24.742;2023-07-13T10:00:41;4.63;;;3.83;;
80229;SDS011;69540;42.136;24.742;2023-07-13T10:03:20;4.57;;;3.97;;
80229;SDS011;69540;42.136;24.742;2023-07-13T10:05:55;7.45;;;3.78;;
80229;SDS011;69540;42.136;24.742;2023-07-13T10:08:35;5.25;;;4.15;;
80229;SDS011;69540;42.136;24.742;2023-07-13T10:11:11;4.25;;;3.88;;
80229;SDS011;69540;42.136;24.742;2023-07-13T10:13:46;4.07;;;3.78;;
80229;SDS011;69540;42.136;24.742;2023-07-13T10:16:18;4.25;;;3.85;;
80229;SDS011;69540;42.136;24.742;2023-07-13T10:18:57;4.20;;;3.75;;
80229;SDS011;69540;42.136;24.742;2023-07-13T10:21:27;4.22;;;3.83;;
80229;SDS011;69540;42.136;24.742;2023-07-13T10:24:00;4.90;;;3.97;;
80229;SDS011;69540;42.136;24.742;2023-07-13T10:26:34;4.25;;;3.60;;
80229;SDS011;69540;42.136;24.742;2023-07-13T10:29:02;4.38;;;3.80;;
80229;SDS011;69540;42.136;24.742;2023-07-13T10:31:33;3.70;;;3.40;;
80229;SDS011;69540;42.136;24.742;2023-07-13T10:34:02;4.30;;;3.90;;
80229;SDS011;69540;42.136;24.742;2023-07-13T10:36:29;4.18;;;3.83;;
80229;SDS011;69540;42.136;24.742;2023-07-13T10:39:09;5.43;;;4.13;;
80229;SDS011;69540;42.136;24.742;2023-07-13T10:41:41;4.70;;;3.90;;
80229;SDS011;69540;42.136;24.742;2023-07-13T10:44:12;4.05;;;3.63;;
80229;SDS011;69540;42.136;24.742;2023-07-13T10:47:00;4.18;;;3.78;;
80229;SDS011;69540;42.136;24.742;2023-07-13T10:49:28;4.95;;;3.80;;
80229;SDS011;69540;42.136;24.742;2023-07-13T10:51:56;4.20;;;3.80;;
80229;SDS011;69540;42.136;24.742;2023-07-13T10:54:32;3.97;;;3.67;;
80229;SDS011;69540;42.136;24.742;2023-07-13T11:00:30;3.92;;;3.63;;
80229;SDS011;69540;42.136;24.742;2023-07-13T11:02:38;3.90;;;3.40;;
80229;SDS011;69540;42.136;24.742;2023-07-13T11:05:18;3.83;;;3.53;;
80229;SDS011;69540;42.136;24.742;2023-07-13T11:08:02;3.58;;;3.28;;
80229;SDS011;69540;42.136;24.742;2023-07-13T11:10:47;3.90;;;3.60;;
80229;SDS011;69540;42.136;24.742;2023-07-13T11:15:58;3.88;;;3.58;;
80229;SDS011;69540;42.136;24.742;2023-07-13T11:18:23;3.80;;;3.50;;
80229;SDS011;69540;42.136;24.742;2023-07-13T11:20:50;3.88;;;3.58;;
80229;SDS011;69540;42.136;24.742;2023-07-13T11:23:18;3.63;;;3.33;;
80229;SDS011;69540;42.136;24.742;2023-07-13T11:25:51;3.90;;;3.50;;
80229;SDS011;69540;42.136;24.742;2023-07-13T11:28:18;3.50;;;3.20;;
80229;SDS011;69540;42.136;24.742;2023-07-13T11:30:50;3.53;;;3.23;;
80229;SDS011;69540;42.136;24.742;2023-07-13T11:36:05;3.60;;;3.30;;
80229;SDS011;69540;42.136;24.742;2023-07-13T11:38:41;4.90;;;3.40;;
80229;SDS011;69540;42.136;24.742;2023-07-13T11:41:20;4.28;;;3.30;;
80229;SDS011;69540;42.136;24.742;2023-07-13T11:43:55;4.80;;;3.60;;
80229;SDS011;69540;42.136;24.742;2023-07-13T11:46:32;3.60;;;3.30;;
80229;SDS011;69540;42.136;24.742;2023-07-13T11:48:59;3.65;;;3.35;;
80229;SDS011;69540;42.136;24.742;2023-07-13T11:51:25;3.70;;;3.40;;
80229;SDS011;69540;42.136;24.742;2023-07-13T11:53:54;3.42;;;3.13;;
80229;SDS011;69540;42.136;24.742;2023-07-13T11:56:22;3.58;;;2.92;;
80229;SDS011;69540;42.136;24.742;2023-07-13T11:58:51;3.67;;;3.38;;
80229;SDS011;69540;42.136;24.742;2023-07-13T12:01:20;3.70;;;3.40;;
80229;SDS011;69540;42.136;24.742;2023-07-13T12:03:48;3.60;;;3.30;;
80229;SDS011;69540;42.136;24.742;2023-07-13T12:06:23;3.85;;;3.17;;
80229;SDS011;69540;42.136;24.742;2023-07-13T12:08:59;3.72;;;3.42;;
80229;SDS011;69540;42.136;24.742;2023-07-13T12:11:28;3.70;;;3.40;;
80229;SDS011;69540;42.136;24.742;2023-07-13T12:13:55;3.47;;;3.17;;
80229;SDS011;69540;42.136;24.742;2023-07-13T12:16:31;4.57;;;3.13;;
80229;SDS011;69540;42.136;24.742;2023-07-13T12:18:58;3.55;;;3.13;;
80229;SDS011;69540;42.136;24.742;2023-07-13T12:21:32;3.55;;;3.25;;
80229;SDS011;69540;42.136;24.742;2023-07-13T12:24:02;3.30;;;3.10;;
80229;SDS011;69540;42.136;24.742;2023-07-13T12:26:29;3.63;;;3.33;;
80229;SDS011;69540;42.136;24.742;2023-07-13T12:28:55;3.65;;;3.13;;
80229;SDS011;69540;42.136;24.742;2023-07-13T12:33:56;3.28;;;3.08;;
80229;SDS011;69540;42.136;24.742;2023-07-13T12:36:34;3.55;;;3.25;;
80229;SDS011;69540;42.136;24.742;2023-07-13T12:39:12;3.63;;;3.20;;
80229;SDS011;69540;42.136;24.742;2023-07-13T12:41:45;3.33;;;3.03;;
80229;SDS011;69540;42.136;24.742;2023-07-13T12:44:12;3.97;;;3.22;;
80229;SDS011;69540;42.136;24.742;2023-07-13T12:46:51;3.60;;;3.20;;
80229;SDS011;69540;42.136;24.742;2023-07-13T12:49:21;3.83;;;3.50;;
80229;SDS011;69540;42.136;24.742;2023-07-13T12:51:50;3.58;;;2.97;;
80229;SDS011;69540;42.136;24.742;2023-07-13T12:54:17;3.78;;;3.40;;
80229;SDS011;69540;42.136;24.742;2023-07-13T12:56:44;3.10;;;2.85;;
80229;SDS011;69540;42.136;24.742;2023-07-13T12:59:16;3.55;;;3.05;;
80229;SDS011;69540;42.136;24.742;2023-07-13T13:01:45;3.45;;;3.20;;
80229;SDS011;69540;42.136;24.742;2023-07-13T13:04:12;3.25;;;2.95;;
80229;SDS011;69540;42.136;24.742;2023-07-13T13:06:38;3.20;;;2.90;;
80229;SDS011;69540;42.136;24.742;2023-07-13T13:09:09;3.55;;;3.25;;
80229;SDS011;69540;42.136;24.742;2023-07-13T13:11:38;3.28;;;2.97;;
80229;SDS011;69540;42.136;24.742;2023-07-13T13:14:05;3.33;;;3.03;;
80229;SDS011;69540;42.136;24.742;2023-07-13T13:16:33;3.40;;;3.10;;
80229;SDS011;69540;42.136;24.742;2023-07-13T13:21:48;3.45;;;3.15;;
80229;SDS011;69540;42.136;24.742;2023-07-13T13:24:18;3.58;;;3.28;;
80229;SDS011;69540;42.136;24.742;2023-07-13T13:26:49;3.28;;;2.97;;
80229;SDS011;69540;42.136;24.742;2023-07-13T13:29:17;3.53;;;2.90;;
80229;SDS011;69540;42.136;24.742;2023-07-13T13:31:45;3.35;;;3.05;;
80229;SDS011;69540;42.136;24.742;2023-07-13T13:34:12;2.90;;;2.70;;
80229;SDS011;69540;42.136;24.742;2023-07-13T13:36:40;3.08;;;2.78;;
80229;SDS011;69540;42.136;24.742;2023-07-13T13:39:23;3.42;;;3.03;;
80229;SDS011;69540;42.136;24.742;2023-07-13T13:41:51;3.13;;;2.78;;
80229;SDS011;69540;42.136;24.742;2023-07-13T13:44:18;2.92;;;2.72;;
80229;SDS011;69540;42.136;24.742;2023-07-13T13:46:45;3.00;;;2.80;;
80229;SDS011;69540;42.136;24.742;2023-07-13T13:49:14;3.33;;;3.10;;
80229;SDS011;69540;42.136;24.742;2023-07-13T13:51:42;3.00;;;2.70;;
80229;SDS011;69540;42.136;24.742;2023-07-13T13:54:14;4.53;;;2.90;;
80229;SDS011;69540;42.136;24.742;2023-07-13T13:56:41;3.60;;;2.88;;
80229;SDS011;69540;42.136;24.742;2023-07-13T13:59:11;3.35;;;2.63;;
80229;SDS011;69540;42.136;24.742;2023-07-13T14:01:38;3.58;;;2.97;;
80229;SDS011;69540;42.136;24.742;2023-07-13T14:04:05;3.08;;;2.85;;
80229;SDS011;69540;42.136;24.742;2023-07-13T14:06:31;3.58;;;3.00;;
80229;SDS011;69540;42.136;24.742;2023-07-13T14:08:59;3.88;;;3.20;;
80229;SDS011;69540;42.136;24.742;2023-07-13T14:11:26;2.88;;;2.65;;
80229;SDS011;69540;42.136;24.742;2023-07-13T14:13:55;3.45;;;2.80;;
80229;SDS011;69540;42.136;24.742;2023-07-13T14:16:24;2.88;;;2.67;;
80229;SDS011;69540;42.136;24.742;2023-07-13T14:18:54;3.08;;;2.80;;
80229;SDS011;69540;42.136;24.742;2023-07-13T14:21:23;2.80;;;2.60;;
80229;SDS011;69540;42.136;24.742;2023-07-13T14:23:49;2.80;;;2.60;;
80229;SDS011;69540;42.136;24.742;2023-07-13T14:26:25;3.15;;;2.85;;
80229;SDS011;69540;42.136;24.742;2023-07-13T14:28:53;2.97;;;2.78;;
80229;SDS011;69540;42.136;24.742;2023-07-13T14:31:22;4.45;;;2.90;;
80229;SDS011;69540;42.136;24.742;2023-07-13T14:33:49;2.80;;;2.60;;
80229;SDS011;69540;42.136;24.742;2023-07-13T14:38:46;3.20;;;2.90;;
80229;SDS011;69540;42.136;24.742;2023-07-13T14:41:12;3.10;;;2.80;;
80229;SDS011;69540;42.136;24.742;2023-07-13T14:43:37;2.85;;;2.65;;
80229;SDS011;69540;42.136;24.742;2023-07-13T14:46:03;3.30;;;2.50;;
80229;SDS011;69540;42.136;24.742;2023-07-13T14:48:29;3.47;;;2.88;;
80229;SDS011;69540;42.136;24.742;2023-07-13T14:50:56;2.80;;;2.60;;
80229;SDS011;69540;42.136;24.742;2023-07-13T14:53:24;3.78;;;2.70;;
80229;SDS011;69540;42.136;24.742;2023-07-13T14:55:52;3.85;;;2.60;;
80229;SDS011;69540;42.136;24.742;2023-07-13T14:58:18;3.08;;;2.85;;
80229;SDS011;69540;42.136;24.742;2023-07-13T15:00:44;3.45;;;2.78;;
80229;SDS011;69540;42.136;24.742;2023-07-13T15:03:18;2.70;;;2.50;;
80229;SDS011;69540;42.136;24.742;2023-07-13T15:05:46;2.90;;;2.55;;
80229;SDS011;69540;42.136;24.742;2023-07-13T15:08:13;3.13;;;2.40;;
80229;SDS011;69540;42.136;24.742;2023-07-13T15:10:40;3.42;;;2.88;;
80229;SDS011;69540;42.136;24.742;2023-07-13T15:15:44;3.10;;;2.83;;
80229;SDS011;69540;42.136;24.742;2023-07-13T15:18:15;2.80;;;2.60;;
80229;SDS011;69540;42.136;24.742;2023-07-13T15:20:44;2.67;;;2.47;;
80229;SDS011;69540;42.136;24.742;2023-07-13T15:23:12;3.25;;;2.55;;